sensor_id;sensor_type;location;lat;lon;timestamp;pressure;altitude;pressure_sealevel;temperature;humidity
19736;BME280;32064;49.310;8.646;2023-06-04T00:00:07;100500.72;;;20.65;38.55
19736;BME280;32064;49.310;8.646;2023-06-04T00:02:33;100498.53;;;20.68;37.95
19736;BME280;32064;49.310;8.646;2023-06-04T00:04:58;100494.53;;;20.64;37.92
19736;BME280;32064;49.310;8.646;2023-06-04T00:07:24;100496.34;;;20.63;38.19
19736;BME280;32064;49.310;8.646;2023-06-04T00:09:49;100495.53;;;20.63;37.98
19736;BME280;32064;49.310;8.646;2023-06-04T00:12:15;100499.38;;;20.60;38.10
19736;BME280;32064;49.310;8.646;2023-06-04T00:14:40;100502.03;;;20.60;37.92
19736;BME280;32064;49.310;8.646;2023-06-04T00:17:08;100488.69;;;20.60;37.28
19736;BME280;32064;49.310;8.646;2023-06-04T00:19:33;100491.06;;;20.55;37.56
19736;BME280;32064;49.310;8.646;2023-06-04T00:21:59;100484.53;;;20.50;37.64
19736;BME280;32064;49.310;8.646;2023-06-04T00:24:24;100490.50;;;20.52;37.44
19736;BME280;32064;49.310;8.646;2023-06-04T00:26:50;100490.69;;;20.50;37.44
19736;BME280;32064;49.310;8.646;2023-06-04T00:29:15;100482.19;;;20.47;37.46
19736;BME280;32064;49.310;8.646;2023-06-04T00:31:41;100485.50;;;20.40;37.38
19736;BME280;32064;49.310;8.646;2023-06-04T00:34:06;100487.19;;;20.41;37.85
19736;BME280;32064;49.310;8.646;2023-06-04T00:36:31;100495.56;;;20.38;37.34
19736;BME280;32064;49.310;8.646;2023-06-04T00:38:57;100489.69;;;20.35;37.60
19736;BME280;32064;49.310;8.646;2023-06-04T00:41:22;100487.38;;;20.32;37.38
19736;BME280;32064;49.310;8.646;2023-06-04T00:43:48;100490.38;;;20.29;37.47
19736;BME280;32064;49.310;8.646;2023-06-04T00:46:21;100499.22;;;20.29;37.37
19736;BME280;32064;49.310;8.646;2023-06-04T00:48:46;100496.06;;;20.26;37.91
19736;BME280;32064;49.310;8.646;2023-06-04T00:51:12;100498.91;;;20.24;37.50
19736;BME280;32064;49.310;8.646;2023-06-04T00:53:38;100496.06;;;20.26;36.99
19736;BME280;32064;49.310;8.646;2023-06-04T00:56:03;100505.91;;;20.25;36.78
19736;BME280;32064;49.310;8.646;2023-06-04T00:58:33;100505.25;;;20.31;36.96
19736;BME280;32064;49.310;8.646;2023-06-04T01:01:04;100499.75;;;20.33;36.99
19736;BME280;32064;49.310;8.646;2023-06-04T01:03:31;100510.75;;;20.38;36.90
19736;BME280;32064;49.310;8.646;2023-06-04T01:06:12;100512.44;;;20.39;37.23
19736;BME280;32064;49.310;8.646;2023-06-04T01:08:39;100511.06;;;20.43;37.25
19736;BME280;32064;49.310;8.646;2023-06-04T01:11:08;100518.94;;;20.45;37.16
19736;BME280;32064;49.310;8.646;2023-06-04T01:13:33;100513.41;;;20.38;36.90
19736;BME280;32064;49.310;8.646;2023-06-04T01:15:58;100521.59;;;20.45;36.83
19736;BME280;32064;49.310;8.646;2023-06-04T01:18:28;100518.75;;;20.46;36.79
19736;BME280;32064;49.310;8.646;2023-06-04T01:21:20;100520.78;;;20.44;36.91
19736;BME280;32064;49.310;8.646;2023-06-04T01:23:49;100528.63;;;20.46;36.86
19736;BME280;32064;49.310;8.646;2023-06-04T01:26:25;100537.66;;;20.45;37.06
19736;BME280;32064;49.310;8.646;2023-06-04T01:28:52;100523.13;;;20.39;36.88
19736;BME280;32064;49.310;8.646;2023-06-04T01:31:18;100528.28;;;20.40;36.46
19736;BME280;32064;49.310;8.646;2023-06-04T01:33:51;100522.78;;;20.34;36.04
19736;BME280;32064;49.310;8.646;2023-06-04T01:36:16;100526.13;;;20.36;36.18
19736;BME280;32064;49.310;8.646;2023-06-04T01:38:42;100519.44;;;20.32;36.53
19736;BME280;32064;49.310;8.646;2023-06-04T01:41:08;100522.44;;;20.29;36.55
19736;BME280;32064;49.310;8.646;2023-06-04T01:43:33;100519.78;;;20.21;36.75
19736;BME280;32064;49.310;8.646;2023-06-04T01:46:01;100517.09;;;20.21;36.64
19736;BME280;32064;49.310;8.646;2023-06-04T01:48:26;100516.94;;;20.14;36.77
19736;BME280;32064;49.310;8.646;2023-06-04T01:50:52;100529.63;;;20.12;36.73
19736;BME280;32064;49.310;8.646;2023-06-04T01:53:17;100524.47;;;20.10;36.85
19736;BME280;32064;49.310;8.646;2023-06-04T01:55:43;100525.13;;;20.04;36.68
19736;BME280;32064;49.310;8.646;2023-06-04T01:58:09;100528.63;;;20.05;36.83
19736;BME280;32064;49.310;8.646;2023-06-04T02:00:34;100523.78;;;20.00;36.83
19736;BME280;32064;49.310;8.646;2023-06-04T02:03:00;100519.78;;;19.96;37.05
19736;BME280;32064;49.310;8.646;2023-06-04T02:05:25;100519.09;;;19.94;36.21
19736;BME280;32064;49.310;8.646;2023-06-04T02:07:51;100526.63;;;19.90;36.83
19736;BME280;32064;49.310;8.646;2023-06-04T02:10:18;100525.59;;;19.83;37.00
19736;BME280;32064;49.310;8.646;2023-06-04T02:12:59;100517.41;;;19.77;37.07
19736;BME280;32064;49.310;8.646;2023-06-04T02:15:25;100528.75;;;19.79;36.78
19736;BME280;32064;49.310;8.646;2023-06-04T02:17:56;100521.94;;;19.76;36.90
19736;BME280;32064;49.310;8.646;2023-06-04T02:20:27;100528.75;;;19.70;37.49
19736;BME280;32064;49.310;8.646;2023-06-04T02:22:54;100532.75;;;19.66;37.30
19736;BME280;32064;49.310;8.646;2023-06-04T02:25:20;100534.88;;;19.63;36.23
19736;BME280;32064;49.310;8.646;2023-06-04T02:27:45;100543.41;;;19.66;36.35
19736;BME280;32064;49.310;8.646;2023-06-04T02:30:11;100536.53;;;19.64;36.47
19736;BME280;32064;49.310;8.646;2023-06-04T02:32:36;100543.34;;;19.58;36.91
19736;BME280;32064;49.310;8.646;2023-06-04T02:35:03;100540.88;;;19.57;37.87
19736;BME280;32064;49.310;8.646;2023-06-04T02:37:28;100551.88;;;19.54;37.39
19736;BME280;32064;49.310;8.646;2023-06-04T02:39:54;100555.69;;;19.51;38.44
19736;BME280;32064;49.310;8.646;2023-06-04T02:42:20;100553.69;;;19.45;37.45
19736;BME280;32064;49.310;8.646;2023-06-04T02:44:45;100553.00;;;19.43;38.04
19736;BME280;32064;49.310;8.646;2023-06-04T02:47:11;100552.63;;;19.38;38.71
19736;BME280;32064;49.310;8.646;2023-06-04T02:49:36;100545.97;;;19.34;37.76
19736;BME280;32064;49.310;8.646;2023-06-04T02:52:02;100551.44;;;19.32;37.80
19736;BME280;32064;49.310;8.646;2023-06-04T02:54:27;100547.78;;;19.33;38.05
19736;BME280;32064;49.310;8.646;2023-06-04T02:56:52;100554.44;;;19.29;39.27
19736;BME280;32064;49.310;8.646;2023-06-04T02:59:18;100553.59;;;19.28;38.41
19736;BME280;32064;49.310;8.646;2023-06-04T03:01:44;100554.59;;;19.27;37.07
19736;BME280;32064;49.310;8.646;2023-06-04T03:04:10;100560.78;;;19.28;38.32
19736;BME280;32064;49.310;8.646;2023-06-04T03:06:41;100555.91;;;19.23;38.42
19736;BME280;32064;49.310;8.646;2023-06-04T03:09:10;100554.91;;;19.24;37.86
19736;BME280;32064;49.310;8.646;2023-06-04T03:11:35;100559.91;;;19.19;38.31
19736;BME280;32064;49.310;8.646;2023-06-04T03:14:01;100555.72;;;19.17;39.54
19736;BME280;32064;49.310;8.646;2023-06-04T03:16:26;100554.34;;;19.13;38.23
19736;BME280;32064;49.310;8.646;2023-06-04T03:18:52;100545.53;;;19.12;37.37
19736;BME280;32064;49.310;8.646;2023-06-04T03:21:17;100558.88;;;19.12;38.13
19736;BME280;32064;49.310;8.646;2023-06-04T03:23:43;100555.38;;;19.12;38.05
19736;BME280;32064;49.310;8.646;2023-06-04T03:26:08;100558.88;;;19.12;37.31
19736;BME280;32064;49.310;8.646;2023-06-04T03:28:35;100556.53;;;19.09;38.47
19736;BME280;32064;49.310;8.646;2023-06-04T03:31:00;100559.00;;;19.11;37.59
19736;BME280;32064;49.310;8.646;2023-06-04T03:33:26;100561.16;;;19.07;38.40
19736;BME280;32064;49.310;8.646;2023-06-04T03:35:51;100564.84;;;19.06;37.95
19736;BME280;32064;49.310;8.646;2023-06-04T03:38:25;100561.34;;;19.05;38.28
19736;BME280;32064;49.310;8.646;2023-06-04T03:40:50;100564.00;;;19.05;37.74
19736;BME280;32064;49.310;8.646;2023-06-04T03:43:20;100564.84;;;19.06;37.38
19736;BME280;32064;49.310;8.646;2023-06-04T03:45:46;100565.81;;;19.05;37.33
19736;BME280;32064;49.310;8.646;2023-06-04T03:48:12;100565.81;;;19.05;38.35
19736;BME280;32064;49.310;8.646;2023-06-04T03:50:37;100560.97;;;19.00;37.59
19736;BME280;32064;49.310;8.646;2023-06-04T03:53:03;100560.28;;;18.98;38.94
19736;BME280;32064;49.310;8.646;2023-06-04T03:55:31;100564.63;;;18.99;38.33
19736;BME280;32064;49.310;8.646;2023-06-04T03:57:59;100564.34;;;19.02;37.89
19736;BME280;32064;49.310;8.646;2023-06-04T04:00:25;100574.81;;;19.04;37.88
19736;BME280;32064;49.310;8.646;2023-06-04T04:02:50;100572.00;;;19.05;37.83
19736;BME280;32064;49.310;8.646;2023-06-04T04:05:15;100574.34;;;19.09;36.48
19736;BME280;32064;49.310;8.646;2023-06-04T04:07:41;100581.34;;;19.10;37.65
19736;BME280;32064;49.310;8.646;2023-06-04T04:10:07;100582.03;;;19.12;36.33
19736;BME280;32064;49.310;8.646;2023-06-04T04:12:33;100582.56;;;19.15;37.91
19736;BME280;32064;49.310;8.646;2023-06-04T04:14:58;100589.53;;;19.16;37.78
19736;BME280;32064;49.310;8.646;2023-06-04T04:17:24;100574.41;;;19.17;38.56
19736;BME280;32064;49.310;8.646;2023-06-04T04:19:49;100575.38;;;19.16;36.82
19736;BME280;32064;49.310;8.646;2023-06-04T04:22:14;100580.25;;;19.20;37.97
19736;BME280;32064;49.310;8.646;2023-06-04T04:24:43;100586.09;;;19.24;38.40
19736;BME280;32064;49.310;8.646;2023-06-04T04:27:09;100589.09;;;19.21;37.97
19736;BME280;32064;49.310;8.646;2023-06-04T04:29:39;100589.44;;;19.26;37.73
19736;BME280;32064;49.310;8.646;2023-06-04T04:32:05;100587.59;;;19.26;37.72
19736;BME280;32064;49.310;8.646;2023-06-04T04:34:37;100595.28;;;19.29;36.82
19736;BME280;32064;49.310;8.646;2023-06-04T04:37:05;100600.47;;;19.31;37.25
19736;BME280;32064;49.310;8.646;2023-06-04T04:39:34;100592.81;;;19.36;37.50
19736;BME280;32064;49.310;8.646;2023-06-04T04:41:59;100602.66;;;19.36;37.52
19736;BME280;32064;49.310;8.646;2023-06-04T04:44:25;100602.19;;;19.40;37.71
19736;BME280;32064;49.310;8.646;2023-06-04T04:46:51;100608.72;;;19.46;37.80
19736;BME280;32064;49.310;8.646;2023-06-04T04:49:16;100608.53;;;19.47;37.43
19736;BME280;32064;49.310;8.646;2023-06-04T04:51:42;100606.41;;;19.51;37.79
19736;BME280;32064;49.310;8.646;2023-06-04T04:54:07;100617.09;;;19.51;36.90
19736;BME280;32064;49.310;8.646;2023-06-04T04:56:33;100610.41;;;19.55;37.82
19736;BME280;32064;49.310;8.646;2023-06-04T04:58:59;100611.09;;;19.57;37.55
19736;BME280;32064;49.310;8.646;2023-06-04T05:01:25;100607.28;;;19.60;36.94
19736;BME280;32064;49.310;8.646;2023-06-04T05:03:51;100613.66;;;19.67;37.20
19736;BME280;32064;49.310;8.646;2023-06-04T05:06:17;100617.38;;;19.74;36.77
19736;BME280;32064;49.310;8.646;2023-06-04T05:08:42;100615.88;;;19.80;37.82
19736;BME280;32064;49.310;8.646;2023-06-04T05:11:08;100619.38;;;19.80;37.26
19736;BME280;32064;49.310;8.646;2023-06-04T05:13:34;100615.91;;;19.88;37.82
19736;BME280;32064;49.310;8.646;2023-06-04T05:16:00;100618.06;;;19.92;37.27
19736;BME280;32064;49.310;8.646;2023-06-04T05:18:37;100625.94;;;19.94;36.89
19736;BME280;32064;49.310;8.646;2023-06-04T05:21:05;100619.25;;;19.98;36.93
19736;BME280;32064;49.310;8.646;2023-06-04T05:23:31;100616.25;;;20.01;36.35
19736;BME280;32064;49.310;8.646;2023-06-04T05:25:58;100632.31;;;20.09;36.58
19736;BME280;32064;49.310;8.646;2023-06-04T05:28:24;100628.13;;;20.15;36.55
19736;BME280;32064;49.310;8.646;2023-06-04T05:30:51;100631.16;;;20.20;37.19
19736;BME280;32064;49.310;8.646;2023-06-04T05:33:17;100628.66;;;20.27;36.51
19736;BME280;32064;49.310;8.646;2023-06-04T05:35:45;100631.03;;;20.30;36.05
19736;BME280;32064;49.310;8.646;2023-06-04T05:38:11;100636.88;;;20.33;36.02
19736;BME280;32064;49.310;8.646;2023-06-04T05:40:42;100632.03;;;20.37;36.68
19736;BME280;32064;49.310;8.646;2023-06-04T05:43:08;100640.19;;;20.44;35.91
19736;BME280;32064;49.310;8.646;2023-06-04T05:45:33;100644.22;;;20.48;36.40
19736;BME280;32064;49.310;8.646;2023-06-04T05:47:59;100644.28;;;20.56;35.96
19736;BME280;32064;49.310;8.646;2023-06-04T05:50:24;100639.91;;;20.63;36.56
19736;BME280;32064;49.310;8.646;2023-06-04T05:52:50;100641.59;;;20.72;35.92
19736;BME280;32064;49.310;8.646;2023-06-04T05:55:15;100642.44;;;20.73;35.89
19736;BME280;32064;49.310;8.646;2023-06-04T05:57:42;100644.78;;;20.76;35.88
19736;BME280;32064;49.310;8.646;2023-06-04T06:00:07;100645.41;;;20.86;35.63
19736;BME280;32064;49.310;8.646;2023-06-04T06:02:36;100641.41;;;20.90;36.08
19736;BME280;32064;49.310;8.646;2023-06-04T06:05:03;100641.75;;;20.95;36.57
19736;BME280;32064;49.310;8.646;2023-06-04T06:07:28;100645.88;;;21.06;35.68
19736;BME280;32064;49.310;8.646;2023-06-04T06:09:53;100645.72;;;21.16;36.71
19736;BME280;32064;49.310;8.646;2023-06-04T06:12:19;100654.91;;;21.21;35.90
19736;BME280;32064;49.310;8.646;2023-06-04T06:14:45;100653.19;;;21.28;36.10
19736;BME280;32064;49.310;8.646;2023-06-04T06:17:10;100651.22;;;21.39;36.29
19736;BME280;32064;49.310;8.646;2023-06-04T06:19:36;100662.38;;;21.50;36.58
19736;BME280;32064;49.310;8.646;2023-06-04T06:22:02;100661.03;;;21.63;36.22
19736;BME280;32064;49.310;8.646;2023-06-04T06:24:29;100667.00;;;21.73;36.32
19736;BME280;32064;49.310;8.646;2023-06-04T06:26:54;100665.66;;;21.77;35.30
19736;BME280;32064;49.310;8.646;2023-06-04T06:29:20;100674.13;;;21.89;36.06
19736;BME280;32064;49.310;8.646;2023-06-04T06:31:46;100670.03;;;22.01;35.17
19736;BME280;32064;49.310;8.646;2023-06-04T06:34:11;100673.34;;;22.11;35.04
19736;BME280;32064;49.310;8.646;2023-06-04T06:36:37;100685.34;;;22.24;35.07
19736;BME280;32064;49.310;8.646;2023-06-04T06:39:02;100684.53;;;22.46;35.86
19736;BME280;32064;49.310;8.646;2023-06-04T06:41:28;100686.56;;;22.67;34.65
19736;BME280;32064;49.310;8.646;2023-06-04T06:43:56;100682.19;;;22.89;34.56
19736;BME280;32064;49.310;8.646;2023-06-04T06:46:22;100687.56;;;22.89;35.02
19736;BME280;32064;49.310;8.646;2023-06-04T06:48:48;100692.75;;;23.14;34.71
19736;BME280;32064;49.310;8.646;2023-06-04T06:51:14;100693.88;;;23.34;34.65
19736;BME280;32064;49.310;8.646;2023-06-04T06:53:39;100696.69;;;23.56;34.23
19736;BME280;32064;49.310;8.646;2023-06-04T06:56:06;100687.13;;;23.68;34.55
19736;BME280;32064;49.310;8.646;2023-06-04T06:58:31;100695.66;;;23.86;33.96
19736;BME280;32064;49.310;8.646;2023-06-04T07:00:57;100696.69;;;23.85;33.05
19736;BME280;32064;49.310;8.646;2023-06-04T07:03:22;100696.75;;;24.07;33.86
19736;BME280;32064;49.310;8.646;2023-06-04T07:05:47;100692.06;;;24.30;32.93
19736;BME280;32064;49.310;8.646;2023-06-04T07:08:13;100688.13;;;24.48;33.22
19736;BME280;32064;49.310;8.646;2023-06-04T07:10:39;100699.72;;;24.48;32.98
19736;BME280;32064;49.310;8.646;2023-06-04T07:13:04;100695.28;;;24.62;32.43
19736;BME280;32064;49.310;8.646;2023-06-04T07:15:30;100701.94;;;25.09;32.79
19736;BME280;32064;49.310;8.646;2023-06-04T07:17:55;100696.16;;;25.40;31.79
19736;BME280;32064;49.310;8.646;2023-06-04T07:20:20;100699.41;;;25.64;32.58
19736;BME280;32064;49.310;8.646;2023-06-04T07:22:46;100697.66;;;25.84;32.11
19736;BME280;32064;49.310;8.646;2023-06-04T07:25:11;100699.19;;;25.93;31.69
19736;BME280;32064;49.310;8.646;2023-06-04T07:27:37;100698.94;;;25.88;31.28
19736;BME280;32064;49.310;8.646;2023-06-04T07:30:02;100698.38;;;26.00;32.20
19736;BME280;32064;49.310;8.646;2023-06-04T07:32:28;100697.47;;;25.86;32.61
19736;BME280;32064;49.310;8.646;2023-06-04T07:34:53;100697.53;;;25.99;31.97
19736;BME280;32064;49.310;8.646;2023-06-04T07:37:19;100700.91;;;26.08;31.30
19736;BME280;32064;49.310;8.646;2023-06-04T07:39:44;100703.59;;;26.14;31.15
19736;BME280;32064;49.310;8.646;2023-06-04T07:42:10;100693.03;;;26.19;31.00
19736;BME280;32064;49.310;8.646;2023-06-04T07:44:36;100695.16;;;26.31;31.05
19736;BME280;32064;49.310;8.646;2023-06-04T07:47:03;100687.28;;;26.42;30.80
19736;BME280;32064;49.310;8.646;2023-06-04T07:49:28;100687.75;;;26.59;30.98
19736;BME280;32064;49.310;8.646;2023-06-04T07:51:54;100686.94;;;26.99;31.26
19736;BME280;32064;49.310;8.646;2023-06-04T07:54:19;100694.22;;;30.64;26.49
19736;BME280;32064;49.310;8.646;2023-06-04T07:56:44;100694.94;;;31.77;25.33
19736;BME280;32064;49.310;8.646;2023-06-04T07:59:10;100694.06;;;30.59;26.03
19736;BME280;32064;49.310;8.646;2023-06-04T08:01:35;100692.38;;;30.16;27.29
19736;BME280;32064;49.310;8.646;2023-06-04T08:04:01;100698.00;;;29.66;27.74
19736;BME280;32064;49.310;8.646;2023-06-04T08:06:26;100691.78;;;32.09;25.33
19736;BME280;32064;49.310;8.646;2023-06-04T08:08:52;100692.84;;;34.20;24.43
19736;BME280;32064;49.310;8.646;2023-06-04T08:11:18;100685.09;;;35.46;23.44
19736;BME280;32064;49.310;8.646;2023-06-04T08:13:44;100693.91;;;36.37;22.51
19736;BME280;32064;49.310;8.646;2023-06-04T08:16:09;100693.69;;;36.79;21.41
19736;BME280;32064;49.310;8.646;2023-06-04T08:18:39;100693.69;;;36.79;20.91
19736;BME280;32064;49.310;8.646;2023-06-04T08:21:05;100690.09;;;36.94;20.98
19736;BME280;32064;49.310;8.646;2023-06-04T08:23:31;100691.41;;;37.43;20.88
19736;BME280;32064;49.310;8.646;2023-06-04T08:25:57;100693.47;;;37.77;20.41
19736;BME280;32064;49.310;8.646;2023-06-04T08:28:24;100696.25;;;38.21;20.37
19736;BME280;32064;49.310;8.646;2023-06-04T08:30:49;100696.38;;;38.50;20.86
19736;BME280;32064;49.310;8.646;2023-06-04T08:33:15;100702.97;;;38.78;20.23
19736;BME280;32064;49.310;8.646;2023-06-04T08:35:40;100688.72;;;38.42;20.52
19736;BME280;32064;49.310;8.646;2023-06-04T08:38:06;100697.50;;;38.00;20.44
19736;BME280;32064;49.310;8.646;2023-06-04T08:40:31;100689.50;;;38.03;20.69
19736;BME280;32064;49.310;8.646;2023-06-04T08:42:56;100694.69;;;38.54;19.72
19736;BME280;32064;49.310;8.646;2023-06-04T08:45:25;100699.59;;;38.57;19.89
19736;BME280;32064;49.310;8.646;2023-06-04T08:47:54;100697.41;;;39.18;19.52
19736;BME280;32064;49.310;8.646;2023-06-04T08:50:21;100703.19;;;39.45;20.01
19736;BME280;32064;49.310;8.646;2023-06-04T08:52:51;100703.19;;;39.45;20.01
19736;BME280;32064;49.310;8.646;2023-06-04T08:55:18;100706.75;;;39.70;20.18
19736;BME280;32064;49.310;8.646;2023-06-04T08:57:44;100709.63;;;39.84;19.49
19736;BME280;32064;49.310;8.646;2023-06-04T09:00:09;100706.25;;;40.06;19.20
19736;BME280;32064;49.310;8.646;2023-06-04T09:02:36;100706.91;;;40.22;19.08
19736;BME280;32064;49.310;8.646;2023-06-04T09:05:04;100703.34;;;39.97;19.80
19736;BME280;32064;49.310;8.646;2023-06-04T09:07:30;100704.78;;;40.13;18.68
19736;BME280;32064;49.310;8.646;2023-06-04T09:09:57;100700.59;;;40.16;19.04
19736;BME280;32064;49.310;8.646;2023-06-04T09:12:24;100705.75;;;39.85;19.52
19736;BME280;32064;49.310;8.646;2023-06-04T09:14:50;100702.44;;;39.83;18.67
19736;BME280;32064;49.310;8.646;2023-06-04T09:17:25;100700.59;;;39.78;18.63
19736;BME280;32064;49.310;8.646;2023-06-04T09:19:51;100699.25;;;39.94;18.82
19736;BME280;32064;49.310;8.646;2023-06-04T09:22:16;100709.69;;;40.16;18.67
19736;BME280;32064;49.310;8.646;2023-06-04T09:24:44;100704.00;;;40.32;18.30
19736;BME280;32064;49.310;8.646;2023-06-04T09:27:17;100704.88;;;40.46;18.76
19736;BME280;32064;49.310;8.646;2023-06-04T09:29:53;100706.03;;;39.59;18.81
19736;BME280;32064;49.310;8.646;2023-06-04T09:32:27;100700.72;;;39.15;17.78
19736;BME280;32064;49.310;8.646;2023-06-04T09:34:53;100709.38;;;39.56;18.03
19736;BME280;32064;49.310;8.646;2023-06-04T09:37:19;100702.38;;;39.88;18.29
19736;BME280;32064;49.310;8.646;2023-06-04T09:39:56;100694.59;;;39.95;17.95
19736;BME280;32064;49.310;8.646;2023-06-04T09:42:22;100694.06;;;39.69;18.42
19736;BME280;32064;49.310;8.646;2023-06-04T09:44:48;100693.69;;;40.18;17.68
19736;BME280;32064;49.310;8.646;2023-06-04T09:47:14;100697.94;;;39.92;16.72
19736;BME280;32064;49.310;8.646;2023-06-04T09:49:43;100692.66;;;40.14;16.22
19736;BME280;32064;49.310;8.646;2023-06-04T09:52:08;100701.81;;;40.10;17.26
19736;BME280;32064;49.310;8.646;2023-06-04T09:54:38;100692.50;;;40.44;16.65
19736;BME280;32064;49.310;8.646;2023-06-04T09:57:13;100700.06;;;40.14;17.19
19736;BME280;32064;49.310;8.646;2023-06-04T09:59:43;100685.25;;;39.91;17.67
19736;BME280;32064;49.310;8.646;2023-06-04T10:02:11;100698.84;;;40.25;16.58
19736;BME280;32064;49.310;8.646;2023-06-04T10:04:41;100695.78;;;40.46;17.08
19736;BME280;32064;49.310;8.646;2023-06-04T10:07:09;100702.63;;;40.10;17.15
19736;BME280;32064;49.310;8.646;2023-06-04T10:09:35;100698.94;;;40.53;17.24
19736;BME280;32064;49.310;8.646;2023-06-04T10:12:08;100693.22;;;40.11;16.15
19736;BME280;32064;49.310;8.646;2023-06-04T10:14:40;100695.06;;;39.54;16.47
19736;BME280;32064;49.310;8.646;2023-06-04T10:17:07;100695.19;;;39.92;16.39
19736;BME280;32064;49.310;8.646;2023-06-04T10:19:35;100694.88;;;39.93;16.42
19736;BME280;32064;49.310;8.646;2023-06-04T10:22:03;100700.09;;;39.71;16.65
19736;BME280;32064;49.310;8.646;2023-06-04T10:24:30;100695.00;;;40.02;16.65
19736;BME280;32064;49.310;8.646;2023-06-04T10:26:58;100686.78;;;40.21;16.23
19736;BME280;32064;49.310;8.646;2023-06-04T10:29:29;100684.44;;;40.09;16.13
19736;BME280;32064;49.310;8.646;2023-06-04T10:31:55;100694.91;;;39.45;16.67
19736;BME280;32064;49.310;8.646;2023-06-04T10:34:21;100679.28;;;39.12;16.65
19736;BME280;32064;49.310;8.646;2023-06-04T10:36:46;100678.50;;;39.59;17.04
19736;BME280;32064;49.310;8.646;2023-06-04T10:39:12;100672.78;;;39.02;16.53
19736;BME280;32064;49.310;8.646;2023-06-04T10:41:38;100668.28;;;39.12;16.78
19736;BME280;32064;49.310;8.646;2023-06-04T10:44:03;100676.47;;;38.58;17.35
19736;BME280;32064;49.310;8.646;2023-06-04T10:46:40;100679.50;;;38.23;16.86
19736;BME280;32064;49.310;8.646;2023-06-04T10:49:10;100678.09;;;38.65;16.94
19736;BME280;32064;49.310;8.646;2023-06-04T10:51:39;100674.41;;;38.74;16.29
19736;BME280;32064;49.310;8.646;2023-06-04T10:54:06;100678.91;;;38.65;17.19
19736;BME280;32064;49.310;8.646;2023-06-04T10:56:33;100661.81;;;38.97;16.93
19736;BME280;32064;49.310;8.646;2023-06-04T10:59:00;100670.25;;;39.06;16.94
19736;BME280;32064;49.310;8.646;2023-06-04T11:01:29;100680.59;;;39.43;17.14
19736;BME280;32064;49.310;8.646;2023-06-04T11:03:57;100666.00;;;38.21;17.36
19736;BME280;32064;49.310;8.646;2023-06-04T11:06:23;100682.28;;;38.57;17.46
19736;BME280;32064;49.310;8.646;2023-06-04T11:09:13;100676.50;;;38.19;16.74
19736;BME280;32064;49.310;8.646;2023-06-04T11:11:42;100669.00;;;37.80;17.53
19736;BME280;32064;49.310;8.646;2023-06-04T11:14:09;100676.19;;;38.21;17.80
19736;BME280;32064;49.310;8.646;2023-06-04T11:16:35;100668.19;;;38.63;17.66
19736;BME280;32064;49.310;8.646;2023-06-04T11:19:00;100665.53;;;38.82;17.23
19736;BME280;32064;49.310;8.646;2023-06-04T11:21:27;100654.22;;;39.13;17.77
19736;BME280;32064;49.310;8.646;2023-06-04T11:23:59;100658.72;;;38.75;16.62
19736;BME280;32064;49.310;8.646;2023-06-04T11:26:34;100660.09;;;37.93;17.26
19736;BME280;32064;49.310;8.646;2023-06-04T11:29:01;100664.53;;;37.24;17.39
19736;BME280;32064;49.310;8.646;2023-06-04T11:31:27;100656.59;;;37.18;17.29
19736;BME280;32064;49.310;8.646;2023-06-04T11:33:52;100647.75;;;35.83;17.99
19736;BME280;32064;49.310;8.646;2023-06-04T11:36:29;100637.03;;;35.71;18.45
19736;BME280;32064;49.310;8.646;2023-06-04T11:38:59;100646.66;;;35.79;19.12
19736;BME280;32064;49.310;8.646;2023-06-04T11:41:33;100641.25;;;35.41;18.46
19736;BME280;32064;49.310;8.646;2023-06-04T11:44:04;100646.81;;;34.67;19.20
19736;BME280;32064;49.310;8.646;2023-06-04T11:46:33;100644.06;;;34.67;19.15
19736;BME280;32064;49.310;8.646;2023-06-04T11:48:59;100654.38;;;34.27;19.85
19736;BME280;32064;49.310;8.646;2023-06-04T11:51:25;100635.13;;;34.44;20.16
19736;BME280;32064;49.310;8.646;2023-06-04T11:53:51;100634.19;;;34.60;19.95
19736;BME280;32064;49.310;8.646;2023-06-04T11:56:17;100632.84;;;34.63;19.04
19736;BME280;32064;49.310;8.646;2023-06-04T11:58:43;100634.59;;;33.93;20.35
19736;BME280;32064;49.310;8.646;2023-06-04T12:01:11;100629.94;;;33.44;20.85
19736;BME280;32064;49.310;8.646;2023-06-04T12:03:38;100636.25;;;33.28;20.21
19736;BME280;32064;49.310;8.646;2023-06-04T12:06:17;100627.41;;;33.38;19.93
19736;BME280;32064;49.310;8.646;2023-06-04T12:11:32;100629.38;;;32.86;20.35
19736;BME280;32064;49.310;8.646;2023-06-04T12:14:07;100626.59;;;32.48;21.32
19736;BME280;32064;49.310;8.646;2023-06-04T12:16:35;100621.13;;;32.81;21.10
19736;BME280;32064;49.310;8.646;2023-06-04T12:21:31;100607.84;;;32.68;21.17
19736;BME280;32064;49.310;8.646;2023-06-04T12:24:07;100607.00;;;32.84;21.40
19736;BME280;32064;49.310;8.646;2023-06-04T12:26:33;100613.00;;;32.86;22.41
19736;BME280;32064;49.310;8.646;2023-06-04T12:29:08;100616.63;;;32.92;21.87
19736;BME280;32064;49.310;8.646;2023-06-04T12:31:35;100606.56;;;32.93;21.77
19736;BME280;32064;49.310;8.646;2023-06-04T12:34:01;100604.97;;;32.97;22.57
19736;BME280;32064;49.310;8.646;2023-06-04T12:36:27;100609.03;;;33.11;22.20
19736;BME280;32064;49.310;8.646;2023-06-04T12:38:57;100592.34;;;33.07;22.02
19736;BME280;32064;49.310;8.646;2023-06-04T12:41:23;100601.53;;;33.23;21.27
19736;BME280;32064;49.310;8.646;2023-06-04T12:43:48;100602.69;;;33.27;20.80
19736;BME280;32064;49.310;8.646;2023-06-04T12:46:14;100603.72;;;33.21;20.15
19736;BME280;32064;49.310;8.646;2023-06-04T12:48:39;100595.47;;;33.16;21.18
19736;BME280;32064;49.310;8.646;2023-06-04T12:51:08;100598.94;;;33.12;21.51
19736;BME280;32064;49.310;8.646;2023-06-04T12:53:33;100602.00;;;33.15;20.11